createdAt,value
2018-09-18T00:00:09.403Z,77.48
2018-09-18T00:02:41.900Z,77.05
2018-09-18T00:05:12.891Z,76.95
2018-09-18T00:07:43.750Z,77.16
2018-09-18T00:10:14.659Z,76.52
2018-09-18T00:12:44.649Z,76.58
2018-09-18T00:15:15.704Z,76.16
2018-09-18T00:17:46.696Z,75.47
2018-09-18T00:20:16.742Z,75.74
2018-09-18T00:22:47.475Z,75.76
2018-09-18T00:25:18.494Z,75.62
2018-09-18T00:27:48.768Z,75.24
2018-09-18T00:30:18.951Z,75.68
2018-09-18T00:32:49.993Z,75.22
2018-09-18T00:35:20.252Z,75.80
2018-09-18T00:37:52.167Z,74.51
2018-09-18T00:40:23.836Z,74.57
2018-09-18T00:42:54.174Z,74.63
2018-09-18T00:45:24.282Z,75.47
2018-09-18T00:47:55.964Z,75.03
2018-09-18T00:50:26.207Z,74.71
2018-09-18T00:52:58.925Z,74.66
2018-09-18T00:55:30.321Z,75.04
2018-09-18T00:58:01.985Z,75.16
2018-09-18T01:00:31.949Z,74.28
2018-09-18T01:03:02.780Z,75.07
2018-09-18T01:05:34.384Z,74.55
2018-09-18T01:08:04.199Z,74.00
2018-09-18T01:10:34.542Z,74.51
2018-09-18T01:13:06.053Z,74.04
2018-09-18T01:15:37.381Z,73.66
2018-09-18T01:18:07.346Z,73.00
2018-09-18T01:20:37.950Z,72.83
2018-09-18T01:23:07.969Z,71.64
2018-09-18T01:25:37.912Z,71.89
2018-09-18T01:28:07.975Z,71.04
2018-09-18T01:30:39.677Z,69.77
2018-09-18T01:33:11.316Z,70.40
2018-09-18T01:35:43.941Z,70.14
2018-09-18T01:38:15.589Z,69.66
2018-09-18T01:40:46.606Z,70.89
2018-09-18T01:43:18.955Z,70.48
2018-09-18T01:45:50.897Z,69.67
2018-09-18T01:48:21.003Z,69.34
2018-09-18T01:50:51.543Z,69.40
2018-09-18T01:53:21.533Z,69.57
2018-09-18T01:55:53.701Z,70.00
2018-09-18T01:58:24.595Z,70.24
2018-09-18T02:00:56.529Z,70.75
2018-09-18T02:03:30.029Z,70.31
2018-09-18T02:06:03.401Z,69.31
2018-09-18T02:08:33.741Z,68.73
2018-09-18T02:11:03.553Z,69.39
2018-09-18T02:13:33.500Z,69.34
2018-09-18T02:16:03.624Z,70.16
2018-09-18T02:18:33.416Z,70.26
2018-09-18T02:21:04.618Z,69.26
2018-09-18T02:23:35.338Z,69.90
2018-09-18T02:26:06.542Z,69.47
2018-09-18T02:28:38.705Z,69.64
2018-09-18T02:31:08.650Z,68.23
2018-09-18T02:33:39.979Z,67.76
2018-09-18T02:36:10.100Z,67.41
2018-09-18T02:38:40.147Z,67.14
2018-09-18T02:41:10.651Z,67.33
2018-09-18T02:43:42.093Z,67.46
2018-09-18T02:46:12.734Z,66.97
2018-09-18T02:48:43.764Z,66.34
2018-09-18T02:51:15.189Z,68.35
2018-09-18T02:53:46.077Z,67.90
2018-09-18T02:56:15.806Z,67.54
2018-09-18T02:58:45.886Z,66.42
2018-09-18T03:01:16.014Z,66.08
2018-09-18T03:03:47.063Z,66.56
2018-09-18T03:06:16.868Z,65.63
2018-09-18T03:08:48.269Z,66.00
2018-09-18T03:11:18.777Z,66.00
2018-09-18T03:13:48.560Z,65.04
2018-09-18T03:16:20.742Z,65.46
2018-09-18T03:18:51.438Z,66.37
2018-09-18T03:21:22.409Z,65.23
2018-09-18T03:23:53.361Z,64.69
2018-09-18T03:26:23.159Z,65.63
2018-09-18T03:28:53.048Z,65.07
2018-09-18T03:31:24.627Z,65.13
2018-09-18T03:33:54.614Z,64.86
2018-09-18T03:36:26.411Z,64.05
2018-09-18T03:38:57.932Z,65.02
2018-09-18T03:41:29.725Z,64.57
2018-09-18T03:44:00.382Z,65.44
2018-09-18T03:46:32.716Z,66.02
2018-09-18T03:49:03.304Z,65.51
2018-09-18T03:51:34.457Z,65.07
2018-09-18T03:54:04.285Z,64.14
2018-09-18T03:56:34.390Z,63.86
2018-09-18T03:59:06.143Z,65.07
2018-09-18T04:01:36.166Z,64.01
2018-09-18T04:04:06.079Z,63.95
2018-09-18T04:06:37.355Z,64.93
2018-09-18T04:09:10.665Z,64.73
2018-09-18T04:11:41.281Z,64.74
2018-09-18T04:14:12.199Z,64.67
2018-09-18T04:16:44.827Z,64.82
2018-09-18T04:19:14.775Z,64.74
2018-09-18T04:21:44.973Z,65.10
2018-09-18T04:24:16.140Z,64.71
2018-09-18T04:26:46.875Z,65.60
2018-09-18T04:29:17.096Z,65.22
2018-09-18T04:31:59.386Z,65.60
2018-09-18T04:34:29.417Z,64.91
2018-09-18T04:36:59.642Z,65.18
2018-09-18T04:39:29.713Z,64.51
2018-09-18T04:42:01.520Z,65.26
2018-09-18T04:44:32.320Z,65.64
2018-09-18T04:47:03.056Z,64.67
2018-09-18T04:49:34.438Z,64.61
2018-09-18T04:52:05.724Z,65.13
2018-09-18T04:54:36.929Z,66.09
2018-09-18T04:57:06.907Z,66.16
2018-09-18T04:59:36.871Z,66.05
2018-09-18T05:02:07.253Z,65.94
2018-09-18T05:04:37.819Z,66.54
2018-09-18T05:07:07.827Z,66.22
2018-09-18T05:09:39.111Z,65.73
2018-09-18T05:12:09.182Z,65.74
2018-09-18T05:14:39.197Z,65.43
2018-09-18T05:17:09.114Z,65.91
2018-09-18T05:19:39.034Z,65.98
2018-09-18T05:22:10.572Z,66.26
2018-09-18T05:24:43.893Z,65.70
2018-09-18T05:27:14.041Z,65.57
2018-09-18T05:29:44.217Z,66.32
2018-09-18T05:32:14.742Z,65.38
2018-09-18T05:34:46.130Z,66.47
2018-09-18T05:37:18.057Z,65.83
2018-09-18T05:39:47.985Z,65.28
2018-09-18T05:42:19.832Z,65.31
2018-09-18T05:44:50.479Z,65.52
2018-09-18T05:47:21.522Z,65.41
2018-09-18T05:49:52.543Z,64.26
2018-09-18T05:52:23.069Z,64.83
2018-09-18T05:54:57.353Z,63.95
2018-09-18T05:57:27.625Z,63.82
2018-09-18T05:59:57.621Z,64.51
2018-09-18T06:02:28.868Z,63.90
2018-09-18T06:04:59.010Z,63.59
2018-09-18T06:07:30.575Z,63.12
2018-09-18T06:10:01.101Z,62.95
2018-09-18T06:12:31.523Z,63.79
2018-09-18T06:15:01.823Z,63.26
2018-09-18T06:17:31.896Z,62.59
2018-09-18T06:20:04.419Z,63.27
2018-09-18T06:22:35.038Z,61.95
2018-09-18T06:27:45.941Z,61.28
2018-09-18T06:30:18.424Z,61.65
2018-09-18T06:32:49.659Z,61.90
2018-09-18T06:35:19.665Z,61.42
2018-09-18T06:37:50.017Z,60.96
2018-09-18T06:40:22.770Z,61.00
2018-09-18T06:42:54.049Z,60.14
2018-09-18T06:45:26.729Z,59.90
2018-09-18T06:47:57.689Z,59.81
2018-09-18T06:50:28.027Z,59.94
2018-09-18T06:52:57.981Z,59.19
2018-09-18T06:55:29.024Z,59.55
2018-09-18T06:57:59.997Z,59.59
2018-09-18T07:00:30.001Z,58.80
2018-09-18T07:03:01.022Z,58.43
2018-09-18T07:07:30.726Z,58.04
2018-09-18T07:10:01.166Z,56.03
2018-09-18T07:12:31.518Z,54.40
2018-09-18T07:15:02.042Z,55.76
2018-09-18T07:17:32.481Z,52.70
2018-09-18T07:20:03.119Z,51.24
2018-09-18T07:22:34.018Z,49.04
2018-09-18T07:25:05.075Z,46.54
2018-09-18T07:27:37.418Z,47.83
2018-09-18T07:30:09.479Z,44.67
2018-09-18T07:32:39.552Z,44.99
2018-09-18T07:35:10.279Z,44.14
2018-09-18T07:37:41.421Z,46.12
2018-09-18T07:40:13.098Z,45.50
2018-09-18T07:42:43.124Z,44.94
2018-09-18T07:45:13.767Z,44.18
2018-09-18T07:47:44.923Z,43.19
2018-09-18T07:50:15.853Z,44.16
2018-09-18T07:52:49.691Z,46.06
2018-09-18T07:55:19.676Z,45.67
2018-09-18T07:57:49.996Z,43.03
2018-09-18T08:00:20.231Z,44.63
2018-09-18T08:02:51.054Z,43.02
2018-09-18T08:05:21.199Z,44.42
2018-09-18T08:07:57.614Z,43.42
2018-09-18T08:10:30.293Z,42.46
2018-09-18T08:13:00.346Z,42.95
2018-09-18T08:15:31.058Z,42.24
2018-09-18T08:18:02.185Z,44.02
2018-09-18T08:20:32.434Z,43.06
2018-09-18T08:23:02.963Z,43.15
2018-09-18T08:25:33.956Z,42.30
2018-09-18T08:28:05.017Z,40.29
2018-09-18T08:30:35.115Z,43.46
2018-09-18T08:33:06.237Z,44.91
2018-09-18T08:35:36.629Z,45.92
2018-09-18T08:38:06.768Z,45.74
2018-09-18T08:40:36.718Z,45.25
2018-09-18T08:43:06.670Z,45.68
2018-09-18T08:45:37.833Z,43.41
2018-09-18T08:48:08.182Z,42.47
2018-09-18T08:50:38.398Z,42.48
2018-09-18T08:53:08.899Z,44.41
2018-09-18T08:55:38.927Z,43.42
2018-09-18T08:58:10.055Z,44.82
2018-09-18T09:00:40.803Z,44.42
2018-09-18T09:03:12.092Z,42.14
2018-09-18T09:05:44.444Z,41.98
2018-09-18T09:08:14.936Z,41.19
2018-09-18T09:10:44.888Z,40.04
2018-09-18T09:13:15.935Z,40.34
2018-09-18T09:15:46.097Z,40.20
2018-09-18T09:18:17.045Z,39.01
2018-09-18T09:20:47.498Z,39.05
2018-09-18T09:23:18.550Z,39.99
2018-09-18T09:25:48.517Z,39.85
2018-09-18T09:28:19.051Z,39.85
2018-09-18T09:30:49.628Z,39.85
2018-09-18T09:33:19.673Z,39.90
2018-09-18T09:35:50.223Z,39.79
2018-09-18T09:38:20.555Z,39.42
2018-09-18T09:40:50.730Z,40.42
2018-09-18T09:43:22.478Z,40.62
2018-09-18T09:45:53.389Z,39.94
2018-09-18T09:48:25.455Z,40.67
2018-09-18T09:50:59.592Z,40.98
2018-09-18T09:53:29.590Z,41.45
2018-09-18T09:55:59.643Z,40.79
2018-09-18T09:58:29.756Z,41.99
2018-09-18T10:01:05.024Z,42.01
2018-09-18T10:03:35.587Z,42.29
2018-09-18T10:06:06.538Z,41.51
2018-09-18T10:08:36.587Z,41.71
2018-09-18T10:11:06.720Z,43.10
2018-09-18T10:13:43.164Z,42.00
2018-09-18T10:16:14.013Z,42.62
2018-09-18T10:18:47.282Z,43.08
2018-09-18T10:21:18.238Z,42.19
2018-09-18T10:23:48.634Z,43.09
2018-09-18T10:26:19.525Z,42.69
2018-09-18T10:28:49.521Z,43.96
2018-09-18T10:31:19.781Z,42.97
2018-09-18T10:33:52.704Z,43.01
2018-09-18T10:36:23.328Z,42.62
2018-09-18T10:38:53.374Z,43.69
2018-09-18T10:41:25.669Z,43.44
2018-09-18T10:43:56.648Z,43.28
2018-09-18T10:46:27.135Z,43.49
2018-09-18T10:48:58.153Z,42.79
2018-09-18T10:51:28.531Z,43.49
2018-09-18T10:53:59.137Z,43.13
2018-09-18T10:56:29.418Z,42.16
2018-09-18T10:59:00.211Z,43.05
2018-09-18T11:01:32.415Z,42.49
2018-09-18T11:04:02.357Z,41.77
2018-09-18T11:06:33.066Z,42.36
2018-09-18T11:09:03.275Z,41.98
2018-09-18T11:11:33.217Z,41.03
2018-09-18T11:14:03.411Z,41.75
2018-09-18T11:16:33.993Z,40.08
2018-09-18T11:19:05.128Z,39.43
2018-09-18T11:21:37.107Z,40.29
2018-09-18T11:24:12.296Z,38.67
2018-09-18T11:26:42.355Z,39.66
2018-09-18T11:29:13.133Z,39.77
2018-09-18T11:31:47.203Z,39.37
2018-09-18T11:34:17.428Z,38.56
2018-09-18T11:36:47.645Z,38.30
2018-09-18T11:39:18.417Z,37.39
2018-09-18T11:41:49.161Z,38.33
2018-09-18T11:44:19.332Z,37.37
2018-09-18T11:46:52.306Z,37.81
2018-09-18T11:49:23.703Z,37.12
2018-09-18T11:51:54.524Z,38.42
2018-09-18T11:54:24.565Z,38.21
2018-09-18T11:56:56.429Z,37.77
2018-09-18T11:59:26.471Z,38.37
2018-09-18T12:01:56.642Z,36.90
2018-09-18T12:04:26.577Z,37.72
2018-09-18T12:06:56.889Z,36.61
2018-09-18T12:09:26.837Z,36.63
2018-09-18T12:11:56.804Z,36.49
2018-09-18T12:14:27.944Z,36.84
2018-09-18T12:16:58.315Z,36.04
2018-09-18T12:19:28.694Z,37.14
2018-09-18T12:21:58.575Z,37.24
2018-09-18T12:24:29.925Z,35.89
2018-09-18T12:27:01.047Z,35.96
2018-09-18T12:29:31.687Z,36.97
2018-09-18T12:32:02.055Z,36.84
2018-09-18T12:34:31.992Z,36.08
2018-09-18T12:37:02.007Z,36.13
2018-09-18T12:39:32.569Z,35.98
2018-09-18T12:42:02.844Z,37.08
2018-09-18T12:44:32.939Z,34.98
2018-09-18T12:47:03.295Z,36.39
2018-09-18T12:49:34.176Z,35.98
2018-09-18T12:52:04.898Z,35.72
2018-09-18T12:54:35.753Z,36.42
2018-09-18T12:57:06.061Z,35.41
2018-09-18T12:59:35.967Z,35.44
2018-09-18T13:02:05.970Z,35.20
2018-09-18T13:04:38.601Z,35.24
2018-09-18T13:07:09.783Z,36.33
2018-09-18T13:09:40.125Z,34.83
2018-09-18T13:12:11.466Z,34.83
2018-09-18T13:14:42.856Z,35.33
2018-09-18T13:17:13.247Z,35.69
2018-09-18T13:19:45.323Z,35.77
2018-09-18T13:22:15.891Z,34.83
2018-09-18T13:24:46.020Z,35.63
2018-09-18T13:27:16.487Z,34.52
2018-09-18T13:29:47.863Z,34.64
2018-09-18T13:32:19.253Z,35.33
2018-09-18T13:34:52.284Z,35.65
2018-09-18T13:37:22.855Z,34.99
2018-09-18T13:39:53.804Z,34.78
2018-09-18T13:42:23.949Z,35.77
2018-09-18T13:44:56.660Z,34.65
2018-09-18T13:47:28.146Z,34.76
2018-09-18T13:49:58.789Z,35.44
2018-09-18T13:52:29.316Z,34.50
2018-09-18T13:55:00.073Z,34.04
2018-09-18T13:57:30.106Z,33.98
2018-09-18T14:00:00.272Z,33.31
2018-09-18T14:02:31.663Z,34.17
2018-09-18T14:05:01.858Z,32.77
2018-09-18T14:07:32.747Z,34.25
2018-09-18T14:10:03.823Z,34.44
2018-09-18T14:12:34.892Z,33.32
2018-09-18T14:15:09.634Z,34.35
2018-09-18T14:17:39.820Z,33.94
2018-09-18T14:20:12.484Z,33.73
2018-09-18T14:22:42.946Z,32.77
2018-09-18T14:25:16.179Z,33.49
2018-09-18T14:27:48.028Z,33.46
2018-09-18T14:30:20.286Z,34.49
2018-09-18T14:32:51.653Z,34.03
2018-09-18T14:35:23.990Z,34.18
2018-09-18T14:37:54.204Z,34.03
2018-09-18T14:40:24.226Z,33.94
2018-09-18T14:42:56.237Z,34.43
2018-09-18T14:45:27.061Z,34.68
2018-09-18T14:47:57.183Z,33.56
2018-09-18T14:50:28.511Z,34.50
2018-09-18T14:52:59.276Z,33.75
2018-09-18T14:55:35.170Z,33.52
2018-09-18T14:58:05.959Z,35.07
2018-09-18T15:00:37.316Z,34.75
2018-09-18T15:03:07.926Z,34.62
2018-09-18T15:05:38.038Z,34.48
2018-09-18T15:08:08.411Z,35.15
2018-09-18T15:10:38.713Z,35.00
2018-09-18T15:13:08.800Z,34.66
2018-09-18T15:15:39.487Z,34.30
2018-09-18T15:18:09.691Z,34.60
2018-09-18T15:20:40.149Z,34.25
2018-09-18T15:23:10.692Z,34.95
2018-09-18T15:25:40.831Z,35.30
2018-09-18T15:28:10.758Z,35.64
2018-09-18T15:30:40.900Z,34.15
2018-09-18T15:33:10.955Z,35.56
2018-09-18T15:35:42.479Z,35.99
2018-09-18T15:38:13.976Z,35.70
2018-09-18T15:40:44.901Z,36.04
2018-09-18T15:43:15.808Z,36.39
2018-09-18T15:45:49.911Z,35.24
2018-09-18T15:48:19.948Z,36.50
2018-09-18T15:50:51.025Z,36.30
2018-09-18T15:53:22.222Z,36.61
2018-09-18T15:55:53.345Z,35.68
2018-09-18T15:58:25.031Z,35.97
2018-09-18T16:00:55.382Z,37.05
2018-09-18T16:03:27.509Z,35.78
2018-09-18T16:05:57.743Z,37.08
2018-09-18T16:08:27.662Z,36.57
2018-09-18T16:13:42.215Z,38.82
2018-09-18T16:16:12.368Z,39.33
2018-09-18T16:18:42.574Z,42.46
2018-09-18T16:21:13.195Z,43.51
2018-09-18T16:23:45.615Z,43.69
2018-09-18T16:26:17.776Z,44.47
2018-09-18T16:28:47.992Z,47.03
2018-09-18T16:31:18.789Z,49.47
2018-09-18T16:33:48.713Z,49.59
2018-09-18T16:36:19.334Z,51.79
2018-09-18T16:38:49.293Z,52.07
2018-09-18T16:41:19.277Z,53.04
2018-09-18T16:43:50.226Z,53.94
2018-09-18T16:46:20.887Z,55.29
2018-09-18T16:48:51.059Z,54.76
2018-09-18T16:51:21.059Z,55.75
2018-09-18T16:53:51.108Z,56.60
2018-09-18T16:56:21.050Z,56.88
2018-09-18T16:58:51.078Z,56.68
2018-09-18T17:01:22.372Z,57.76
2018-09-18T17:03:52.696Z,57.67
2018-09-18T17:06:22.786Z,58.68
2018-09-18T17:08:56.148Z,58.90
2018-09-18T17:11:26.233Z,59.34
2018-09-18T17:13:57.937Z,60.15
2018-09-18T17:16:28.159Z,60.17
2018-09-18T17:18:58.669Z,60.63
2018-09-18T17:21:34.841Z,61.90
2018-09-18T17:24:05.956Z,62.04
2018-09-18T17:26:36.134Z,62.46
2018-09-18T17:29:06.873Z,62.04
2018-09-18T17:31:36.763Z,62.41
2018-09-18T17:34:07.544Z,62.80
2018-09-18T17:36:39.684Z,64.25
2018-09-18T17:39:12.283Z,63.99
2018-09-18T17:41:42.535Z,64.49
2018-09-18T17:44:12.600Z,64.94
2018-09-18T17:46:43.795Z,64.69
2018-09-18T17:49:13.993Z,65.96
2018-09-18T17:51:44.216Z,66.37
2018-09-18T17:54:14.269Z,67.11
2018-09-18T17:56:44.953Z,66.86
2018-09-18T17:59:16.106Z,67.91
2018-09-18T18:01:46.197Z,68.02
2018-09-18T18:04:16.760Z,67.29
2018-09-18T18:06:48.036Z,67.85
2018-09-18T18:09:19.598Z,68.29
2018-09-18T18:11:51.578Z,69.10
2018-09-18T18:14:22.185Z,68.89
2018-09-18T18:16:53.679Z,70.09
2018-09-18T18:19:24.364Z,70.07
2018-09-18T18:21:54.924Z,69.96
2018-09-18T18:24:25.392Z,71.25
2018-09-18T18:26:55.243Z,70.81
2018-09-18T18:29:25.659Z,71.75
2018-09-18T18:31:55.716Z,70.99
2018-09-18T18:37:04.917Z,71.11
2018-09-18T18:39:35.008Z,70.79
2018-09-18T18:42:05.533Z,71.44
2018-09-18T18:44:35.721Z,71.54
2018-09-18T18:47:06.494Z,72.52
2018-09-18T18:49:37.962Z,72.34
2018-09-18T18:52:10.699Z,73.07
2018-09-18T18:54:42.644Z,73.08
2018-09-18T18:57:13.237Z,73.02
2018-09-18T18:59:44.152Z,73.44
2018-09-18T19:02:17.118Z,72.69
2018-09-18T19:04:47.182Z,72.74
2018-09-18T19:07:17.043Z,73.64
2018-09-18T19:09:47.895Z,73.56
2018-09-18T19:12:18.082Z,74.39
2018-09-18T19:14:48.444Z,74.92
2018-09-18T19:17:19.119Z,75.93
2018-09-18T19:19:51.520Z,75.53
2018-09-18T19:22:23.775Z,76.17
2018-09-18T19:24:54.548Z,75.39
2018-09-18T19:27:26.058Z,75.78
2018-09-18T19:30:02.408Z,76.50
2018-09-18T19:32:33.149Z,76.39
2018-09-18T19:35:05.937Z,77.14
2018-09-18T19:37:40.333Z,76.14
2018-09-18T19:40:12.524Z,76.43
2018-09-18T19:42:44.451Z,76.96
2018-09-18T19:45:14.715Z,76.06
2018-09-18T19:47:47.268Z,75.94
2018-09-18T19:50:19.966Z,76.56
2018-09-18T19:52:51.184Z,77.34
2018-09-18T19:55:21.184Z,77.89
2018-09-18T19:57:51.445Z,77.78
2018-09-18T20:00:22.588Z,77.88
2018-09-18T20:02:53.291Z,77.99
2018-09-18T20:05:23.920Z,77.23
2018-09-18T20:07:55.688Z,77.29
2018-09-18T20:10:26.712Z,77.74
2018-09-18T20:12:57.572Z,77.41
2018-09-18T20:15:27.556Z,77.25
2018-09-18T20:17:57.529Z,77.57
2018-09-18T20:20:27.796Z,77.67
2018-09-18T20:22:58.306Z,76.73
2018-09-18T20:25:29.707Z,77.37
2018-09-18T20:27:59.642Z,76.59
2018-09-18T20:30:31.511Z,76.47
2018-09-18T20:33:02.783Z,77.30
2018-09-18T20:35:34.849Z,77.85
2018-09-18T20:38:04.857Z,76.79
2018-09-18T20:40:34.999Z,76.28
2018-09-18T20:43:06.141Z,76.39
2018-09-18T20:48:14.379Z,76.10
2018-09-18T20:50:44.438Z,75.63
2018-09-18T20:53:14.525Z,76.35
2018-09-18T20:55:44.514Z,76.25
2018-09-18T20:58:14.530Z,76.53
2018-09-18T21:00:44.402Z,76.15
2018-09-18T21:03:14.344Z,76.74
2018-09-18T21:05:44.364Z,76.65
2018-09-18T21:08:14.858Z,76.95
2018-09-18T21:10:45.020Z,77.05
2018-09-18T21:13:15.055Z,76.62
2018-09-18T21:15:45.326Z,76.09
2018-09-18T21:18:15.367Z,75.88
2018-09-18T21:20:46.122Z,76.06
2018-09-18T21:23:16.921Z,76.91
2018-09-18T21:26:19.558Z,76.70
2018-09-18T21:28:51.086Z,76.14
2018-09-18T21:31:22.757Z,76.14
2018-09-18T21:33:53.679Z,76.36
2018-09-18T21:36:25.631Z,76.30
2018-09-18T21:38:56.794Z,76.36
2018-09-18T21:41:26.986Z,76.77
2018-09-18T21:43:57.694Z,76.67
2018-09-18T21:46:27.884Z,77.34
2018-09-18T21:48:57.839Z,77.04
2018-09-18T21:51:30.188Z,76.68
2018-09-18T21:54:00.223Z,77.11
2018-09-18T21:56:30.280Z,76.56
2018-09-18T21:59:00.184Z,76.69
2018-09-18T22:01:31.004Z,77.08
2018-09-18T22:04:00.985Z,77.33
2018-09-18T22:06:31.095Z,77.21
2018-09-18T22:09:01.904Z,77.27
2018-09-18T22:11:33.240Z,77.48
2018-09-18T22:14:03.724Z,77.00
2018-09-18T22:16:34.155Z,77.16
2018-09-18T22:19:05.065Z,77.43
2018-09-18T22:21:35.118Z,77.35
2018-09-18T22:24:05.713Z,78.00
2018-09-18T22:26:35.565Z,77.73
2018-09-18T22:29:05.473Z,77.89
2018-09-18T22:31:35.514Z,77.37
2018-09-18T22:34:06.466Z,77.67
2018-09-18T22:36:36.568Z,77.60
2018-09-18T22:39:10.486Z,77.43
2018-09-18T22:41:41.118Z,77.93
2018-09-18T22:44:11.135Z,78.02
2018-09-18T22:46:43.721Z,78.87
2018-09-18T22:49:43.268Z,79.07
2018-09-18T22:52:13.244Z,78.41
2018-09-18T22:54:43.670Z,78.89
2018-09-18T22:57:14.911Z,79.29
2018-09-18T22:59:45.533Z,80.41
2018-09-18T23:02:19.022Z,80.54
2018-09-18T23:04:49.715Z,79.70
2018-09-18T23:07:19.617Z,79.69
2018-09-18T23:09:50.420Z,80.32
2018-09-18T23:12:20.535Z,79.92
2018-09-18T23:14:50.457Z,80.37
2018-09-18T23:17:22.101Z,80.26
2018-09-18T23:19:52.433Z,81.25
2018-09-18T23:22:22.343Z,80.60
2018-09-18T23:24:52.456Z,80.78
2018-09-18T23:27:22.576Z,80.69
2018-09-18T23:29:52.447Z,81.02
2018-09-18T23:32:23.575Z,80.06
2018-09-18T23:34:53.859Z,80.42
2018-09-18T23:37:24.081Z,80.09
2018-09-18T23:39:56.138Z,80.21
2018-09-18T23:42:26.107Z,80.98
2018-09-18T23:44:56.083Z,80.31
2018-09-18T23:47:26.525Z,80.41
2018-09-18T23:49:56.405Z,81.05
2018-09-18T23:52:26.379Z,80.85
2018-09-18T23:54:56.357Z,80.95
2018-09-18T23:57:26.226Z,80.70
2018-09-18T23:59:56.818Z,80.83
